createdAt,value
2022-12-06T00:00:33.853Z,15.5
2022-12-06T00:01:36.322Z,15.7
2022-12-06T00:02:38.711Z,15.7
2022-12-06T00:03:41.239Z,15.7
2022-12-06T00:04:44.218Z,15.6
2022-12-06T00:05:47.148Z,15.7
2022-12-06T00:06:49.631Z,15.7
2022-12-06T00:07:52.008Z,15.7
2022-12-06T00:08:54.634Z,15.7
2022-12-06T00:09:57.796Z,15.7
2022-12-06T00:11:01.745Z,15.8
2022-12-06T00:12:04.227Z,15.7
2022-12-06T00:13:06.448Z,15.7
2022-12-06T00:14:08.668Z,15.7
2022-12-06T00:15:11.168Z,15.7
2022-12-06T00:16:13.935Z,15.8
2022-12-06T00:17:16.612Z,15.8
2022-12-06T00:18:18.840Z,15.8
2022-12-06T00:19:21.054Z,15.8
2022-12-06T00:20:23.518Z,15.8
2022-12-06T00:21:26.448Z,15.8
2022-12-06T00:22:28.923Z,15.8
2022-12-06T00:23:32.345Z,15.9
2022-12-06T00:24:34.261Z,15.8
2022-12-06T00:25:36.744Z,15.7
2022-12-06T00:26:39.083Z,15.8
2022-12-06T00:27:41.295Z,15.7
2022-12-06T00:28:43.765Z,15.8
2022-12-06T00:29:46.254Z,15.8
2022-12-06T00:30:48.484Z,15.8
2022-12-06T00:31:51.293Z,15.7
2022-12-06T00:32:54.228Z,15.7
2022-12-06T00:33:56.714Z,15.8
2022-12-06T00:34:59.188Z,15.8
2022-12-06T00:36:01.387Z,15.9
2022-12-06T00:37:03.333Z,15.8
2022-12-06T00:38:05.822Z,15.8
2022-12-06T00:39:08.045Z,15.9
2022-12-06T00:40:10.536Z,15.8
2022-12-06T00:41:12.737Z,15.8
2022-12-06T00:42:15.215Z,15.9
2022-12-06T00:43:17.698Z,15.8
2022-12-06T00:44:19.898Z,15.9
2022-12-06T00:45:21.804Z,15.8
2022-12-06T00:46:24.434Z,15.8
2022-12-06T00:47:27.501Z,15.8
2022-12-06T00:48:29.680Z,15.8
2022-12-06T00:49:31.895Z,16
2022-12-06T00:50:34.382Z,15.8
2022-12-06T00:51:36.586Z,15.8
2022-12-06T00:52:38.810Z,15.9
2022-12-06T00:53:40.716Z,16
2022-12-06T00:54:43.206Z,15.9
2022-12-06T00:55:45.410Z,15.8
2022-12-06T00:56:47.881Z,15.9
2022-12-06T00:57:50.377Z,15.8
2022-12-06T00:58:52.852Z,15.8
2022-12-06T00:59:55.326Z,15.9
2022-12-06T01:00:58.168Z,16
2022-12-06T01:02:00.340Z,16
2022-12-06T01:03:03.066Z,15.9
2022-12-06T01:04:05.801Z,16
2022-12-06T01:05:08.276Z,15.9
2022-12-06T01:06:10.494Z,15.9
2022-12-06T01:07:12.973Z,15.8
2022-12-06T01:08:15.595Z,16.1
2022-12-06T01:09:18.575Z,15.9
2022-12-06T01:10:20.806Z,15.9
2022-12-06T01:11:23.001Z,16
2022-12-06T01:12:25.480Z,15.9
2022-12-06T01:13:27.703Z,15.9
2022-12-06T01:14:30.202Z,15.8
2022-12-06T01:15:32.672Z,15.8
2022-12-06T01:16:35.441Z,15.9
2022-12-06T01:17:38.214Z,15.9
2022-12-06T01:18:40.765Z,15.9
2022-12-06T01:19:43.290Z,15.8
2022-12-06T01:20:45.771Z,16
2022-12-06T01:21:47.969Z,16
2022-12-06T01:22:50.441Z,16.1
2022-12-06T01:23:52.651Z,15.9
2022-12-06T01:24:54.852Z,16
2022-12-06T01:25:57.047Z,15.9
2022-12-06T01:26:59.541Z,16
2022-12-06T01:28:02.021Z,15.9
2022-12-06T01:29:04.212Z,15.9
2022-12-06T01:30:06.692Z,16
2022-12-06T01:31:09.047Z,16
2022-12-06T01:32:11.495Z,16
2022-12-06T01:33:14.019Z,16
2022-12-06T01:34:16.566Z,16
2022-12-06T01:35:18.773Z,15.9
2022-12-06T01:36:20.977Z,16.1
2022-12-06T01:37:22.635Z,16
2022-12-06T01:38:24.259Z,16
2022-12-06T01:39:26.490Z,16
2022-12-06T01:40:28.982Z,15.9
2022-12-06T01:41:31.180Z,15.9
2022-12-06T01:42:33.107Z,15.9
2022-12-06T01:43:35.569Z,16.1
2022-12-06T01:44:38.055Z,15.9
2022-12-06T01:45:40.331Z,16
2022-12-06T01:46:42.905Z,16
2022-12-06T01:47:45.397Z,16
2022-12-06T01:48:47.641Z,16.1
2022-12-06T01:49:50.177Z,16
2022-12-06T01:50:52.395Z,16
2022-12-06T01:51:54.868Z,16.1
2022-12-06T01:52:57.077Z,16
2022-12-06T01:53:59.561Z,15.9
2022-12-06T01:55:02.146Z,16.1
2022-12-06T01:56:04.630Z,16
2022-12-06T01:57:06.828Z,16
2022-12-06T01:58:09.293Z,16.1
2022-12-06T01:59:11.792Z,16.1
2022-12-06T02:00:14.267Z,16
2022-12-06T02:01:16.667Z,16
2022-12-06T02:02:19.345Z,16
2022-12-06T02:03:22.083Z,16
2022-12-06T02:04:24.590Z,16.1
2022-12-06T02:05:26.869Z,15.9
2022-12-06T02:06:28.795Z,16
2022-12-06T02:07:30.988Z,16.1
2022-12-06T02:08:33.703Z,16.1
2022-12-06T02:09:35.387Z,16.1
2022-12-06T02:10:37.604Z,16.1
2022-12-06T02:11:40.133Z,15.9
2022-12-06T02:12:42.327Z,16
2022-12-06T02:13:44.818Z,16.1
2022-12-06T02:14:47.290Z,16
2022-12-06T02:15:49.507Z,15.9
2022-12-06T02:16:52.192Z,16
2022-12-06T02:17:55.094Z,15.9
2022-12-06T02:18:57.567Z,16
2022-12-06T02:20:00.642Z,15.9
2022-12-06T02:21:04.401Z,16.1
2022-12-06T02:22:06.881Z,16
2022-12-06T02:23:09.086Z,16.1
2022-12-06T02:24:11.308Z,16.1
2022-12-06T02:25:13.509Z,16
2022-12-06T02:26:16.013Z,16
2022-12-06T02:27:18.489Z,16
2022-12-06T02:28:20.421Z,16
2022-12-06T02:29:22.893Z,16.1
2022-12-06T02:30:25.097Z,16
2022-12-06T02:31:27.498Z,16.1
2022-12-06T02:32:30.489Z,16.1
2022-12-06T02:33:32.960Z,16
2022-12-06T02:34:34.877Z,16.1
2022-12-06T02:35:37.086Z,16.1
2022-12-06T02:36:39.607Z,16.1
2022-12-06T02:37:41.812Z,16.1
2022-12-06T02:38:44.283Z,16.1
2022-12-06T02:39:46.758Z,16
2022-12-06T02:40:48.951Z,16.1
2022-12-06T02:41:51.478Z,16.1
2022-12-06T02:42:53.134Z,16.1
2022-12-06T02:43:55.619Z,16.1
2022-12-06T02:44:57.816Z,16.1
2022-12-06T02:46:00.487Z,16.1
2022-12-06T02:47:02.988Z,16.1
2022-12-06T02:48:05.490Z,16
2022-12-06T02:49:07.956Z,16.2
2022-12-06T02:50:10.170Z,16.1
2022-12-06T02:51:12.671Z,16.1
2022-12-06T02:52:15.221Z,16.1
2022-12-06T02:53:17.697Z,16.1
2022-12-06T02:54:20.174Z,16
2022-12-06T02:55:22.370Z,16
2022-12-06T02:56:24.667Z,16.1
2022-12-06T02:57:27.173Z,16.1
2022-12-06T02:58:29.378Z,16.1
2022-12-06T02:59:31.552Z,15.9
2022-12-06T03:00:33.759Z,16.1
2022-12-06T03:01:36.070Z,16
2022-12-06T03:02:38.948Z,16.1
2022-12-06T03:03:41.704Z,16.1
2022-12-06T03:04:43.893Z,16.1
2022-12-06T03:05:46.363Z,16.1
2022-12-06T03:06:48.608Z,16.1
2022-12-06T03:07:51.267Z,16.1
2022-12-06T03:08:53.640Z,16
2022-12-06T03:09:56.116Z,16.1
2022-12-06T03:10:58.280Z,16.1
2022-12-06T03:12:00.769Z,16.1
2022-12-06T03:13:02.987Z,16.1
2022-12-06T03:14:05.922Z,16
2022-12-06T03:15:09.993Z,16.1
2022-12-06T03:16:12.324Z,16.2
2022-12-06T03:17:15.262Z,16
2022-12-06T03:18:17.739Z,16.1
2022-12-06T03:19:20.218Z,16.1
2022-12-06T03:20:22.412Z,16.1
2022-12-06T03:21:24.612Z,16.1
2022-12-06T03:22:26.817Z,16.1
2022-12-06T03:23:29.374Z,16.1
2022-12-06T03:24:31.830Z,16
2022-12-06T03:25:34.038Z,16.1
2022-12-06T03:26:36.363Z,16.1
2022-12-06T03:27:38.844Z,16.1
2022-12-06T03:28:41.333Z,16.1
2022-12-06T03:29:43.546Z,16
2022-12-06T03:30:46.151Z,16.2
2022-12-06T03:31:48.922Z,16.1
2022-12-06T03:32:51.113Z,16
2022-12-06T03:33:53.589Z,16.2
2022-12-06T03:34:55.534Z,16.2
2022-12-06T03:35:58.016Z,16.1
2022-12-06T03:37:00.205Z,16.2
2022-12-06T03:38:02.693Z,16.2
2022-12-06T03:39:05.233Z,16.1
2022-12-06T03:40:07.439Z,16.1
2022-12-06T03:41:09.944Z,16.2
2022-12-06T03:42:12.140Z,16.1
2022-12-06T03:43:14.363Z,16.1
2022-12-06T03:44:16.588Z,16.1
2022-12-06T03:45:19.273Z,16.1
2022-12-06T03:46:22.241Z,16.1
2022-12-06T03:47:25.456Z,16.1
2022-12-06T03:48:27.654Z,16.2
2022-12-06T03:49:30.152Z,16
2022-12-06T03:50:32.331Z,16.1
2022-12-06T03:51:34.539Z,16.1
2022-12-06T03:52:37.012Z,16.1
2022-12-06T03:53:39.238Z,16.1
2022-12-06T03:54:41.770Z,16.1
2022-12-06T03:55:43.412Z,16.1
2022-12-06T03:56:45.580Z,16.1
2022-12-06T03:57:48.075Z,16.1
2022-12-06T03:58:50.539Z,16
2022-12-06T03:59:52.766Z,16.2
2022-12-06T04:00:55.237Z,16.1
2022-12-06T04:01:57.822Z,16.2
2022-12-06T04:03:00.551Z,16.1
2022-12-06T04:04:03.268Z,16.1
2022-12-06T04:05:05.782Z,16.2
2022-12-06T04:06:08.271Z,16
2022-12-06T04:07:10.465Z,16.1
2022-12-06T04:08:12.520Z,16.1
2022-12-06T04:09:14.825Z,16.1
2022-12-06T04:10:17.378Z,16.2
2022-12-06T04:11:19.582Z,16.1
2022-12-06T04:12:22.068Z,16.1
2022-12-06T04:13:24.549Z,16.2
2022-12-06T04:14:27.033Z,16.1
2022-12-06T04:15:29.263Z,16.1
2022-12-06T04:16:31.516Z,16.2
2022-12-06T04:17:33.796Z,15.9
2022-12-06T04:18:36.278Z,16
2022-12-06T04:19:38.760Z,16.1
2022-12-06T04:20:41.248Z,16.1
2022-12-06T04:21:43.454Z,16
2022-12-06T04:22:45.920Z,16.1
2022-12-06T04:23:48.402Z,15.9
2022-12-06T04:24:50.891Z,15.9
2022-12-06T04:25:53.448Z,16
2022-12-06T04:26:55.923Z,16.1
2022-12-06T04:27:58.401Z,16
2022-12-06T04:29:00.868Z,16
2022-12-06T04:30:03.346Z,16.1
2022-12-06T04:31:06.013Z,16.1
2022-12-06T04:32:08.775Z,16.1
2022-12-06T04:33:10.976Z,16
2022-12-06T04:34:13.165Z,16.1
2022-12-06T04:35:15.368Z,15.9
2022-12-06T04:36:17.857Z,15.9
2022-12-06T04:37:20.355Z,16.1
2022-12-06T04:38:22.558Z,15.9
2022-12-06T04:39:25.037Z,16.1
2022-12-06T04:40:27.543Z,16
2022-12-06T04:41:30.087Z,15.9
2022-12-06T04:42:32.565Z,16
2022-12-06T04:43:35.032Z,16
2022-12-06T04:44:37.238Z,15.9
2022-12-06T04:45:39.430Z,15.9
2022-12-06T04:46:41.800Z,15.9
2022-12-06T04:47:44.273Z,16.1
2022-12-06T04:48:46.514Z,15.9
2022-12-06T04:49:48.472Z,15.9
2022-12-06T04:50:50.949Z,16.1
2022-12-06T04:51:53.438Z,15.9
2022-12-06T04:52:55.914Z,16
2022-12-06T04:53:58.383Z,15.9
2022-12-06T04:55:00.026Z,16
2022-12-06T04:56:02.520Z,16
2022-12-06T04:57:05.080Z,15.8
2022-12-06T04:58:07.551Z,15.9
2022-12-06T04:59:10.030Z,15.9
2022-12-06T05:00:12.495Z,16
2022-12-06T05:01:14.553Z,16.1
2022-12-06T05:02:17.456Z,15.9
2022-12-06T05:03:20.087Z,15.9
2022-12-06T05:04:22.935Z,15.9
2022-12-06T05:05:25.627Z,15.9
2022-12-06T05:06:28.099Z,16.1
2022-12-06T05:07:30.291Z,15.9
2022-12-06T05:08:33.005Z,15.8
2022-12-06T05:09:34.938Z,15.9
2022-12-06T05:10:37.133Z,15.9
2022-12-06T05:11:39.357Z,16.1
2022-12-06T05:12:42.683Z,16
2022-12-06T05:13:45.222Z,15.8
2022-12-06T05:14:47.706Z,15.9
2022-12-06T05:15:50.299Z,15.9
2022-12-06T05:16:52.959Z,15.9
2022-12-06T05:17:55.761Z,15.9
2022-12-06T05:18:57.996Z,15.9
2022-12-06T05:20:00.978Z,15.9
2022-12-06T05:21:04.249Z,15.9
2022-12-06T05:22:06.151Z,16
2022-12-06T05:23:08.342Z,15.8
2022-12-06T05:24:10.834Z,15.8
2022-12-06T05:25:13.081Z,15.9
2022-12-06T05:26:15.549Z,15.8
2022-12-06T05:27:17.790Z,15.8
2022-12-06T05:28:20.333Z,15.8
2022-12-06T05:29:22.556Z,15.9
2022-12-06T05:30:25.019Z,15.8
2022-12-06T05:31:27.335Z,15.8
2022-12-06T05:32:29.903Z,15.8
2022-12-06T05:33:32.435Z,15.9
2022-12-06T05:34:34.912Z,15.8
2022-12-06T05:35:37.402Z,15.8
2022-12-06T05:36:39.880Z,16
2022-12-06T05:37:42.076Z,16
2022-12-06T05:39:49.239Z,15.8
2022-12-06T05:40:51.432Z,15.8
2022-12-06T05:41:53.893Z,15.9
2022-12-06T05:42:55.864Z,15.8
2022-12-06T05:43:58.393Z,15.9
2022-12-06T05:45:00.339Z,15.8
2022-12-06T05:46:02.719Z,15.9
2022-12-06T05:47:05.533Z,15.8
2022-12-06T05:48:08.029Z,15.9
2022-12-06T05:49:10.531Z,15.9
2022-12-06T05:50:12.452Z,15.9
2022-12-06T05:51:14.931Z,15.9
2022-12-06T05:52:17.124Z,15.8
2022-12-06T05:53:19.674Z,15.9
2022-12-06T05:54:22.220Z,15.9
2022-12-06T05:55:24.735Z,15.9
2022-12-06T05:56:26.945Z,15.9
2022-12-06T05:57:29.436Z,15.8
2022-12-06T05:58:31.667Z,15.8
2022-12-06T05:59:34.205Z,15.8
2022-12-06T06:00:36.407Z,15.9
2022-12-06T06:01:39.046Z,15.8
2022-12-06T06:02:42.318Z,15.9
2022-12-06T06:04:50.508Z,15.8
2022-12-06T06:05:52.991Z,15.9
2022-12-06T06:06:54.931Z,15.9
2022-12-06T06:07:57.218Z,15.9
2022-12-06T06:08:59.762Z,15.8
2022-12-06T06:10:02.461Z,15.9
2022-12-06T06:11:04.832Z,15.8
2022-12-06T06:13:12.289Z,15.8
2022-12-06T06:14:14.793Z,15.9
2022-12-06T06:15:17.330Z,15.8
2022-12-06T06:16:19.748Z,15.8
2022-12-06T06:17:22.575Z,15.8
2022-12-06T06:18:25.081Z,15.8
2022-12-06T06:19:27.273Z,15.9
2022-12-06T06:20:29.766Z,15.8
2022-12-06T06:21:32.244Z,15.9
2022-12-06T06:22:34.161Z,15.8
2022-12-06T06:23:36.369Z,15.8
2022-12-06T06:24:38.853Z,15.9
2022-12-06T06:25:41.330Z,15.9
2022-12-06T06:26:43.541Z,15.8
2022-12-06T06:27:45.762Z,15.8
2022-12-06T06:28:47.702Z,15.8
2022-12-06T06:29:49.947Z,15.8
2022-12-06T06:30:52.510Z,15.8
2022-12-06T06:31:54.276Z,15.8
2022-12-06T06:32:56.767Z,15.8
2022-12-06T06:33:58.691Z,15.8
2022-12-06T06:35:00.957Z,15.7
2022-12-06T06:36:03.472Z,15.8
2022-12-06T06:37:06.061Z,15.8
2022-12-06T06:38:08.264Z,15.9
2022-12-06T06:39:10.194Z,15.8
2022-12-06T06:40:11.855Z,15.8
2022-12-06T06:41:14.072Z,15.9
2022-12-06T06:42:16.258Z,15.9
2022-12-06T06:43:19.302Z,15.9
2022-12-06T06:44:21.529Z,15.8
2022-12-06T06:46:29.075Z,15.8
2022-12-06T06:47:31.869Z,15.8
2022-12-06T06:48:34.336Z,15.9
2022-12-06T06:49:36.550Z,15.9
2022-12-06T06:50:39.033Z,15.9
2022-12-06T06:51:41.596Z,15.8
2022-12-06T06:52:43.790Z,15.8
2022-12-06T06:53:46.004Z,15.9
2022-12-06T06:54:48.491Z,15.8
2022-12-06T06:55:50.970Z,15.8
2022-12-06T06:56:52.915Z,15.8
2022-12-06T06:57:54.847Z,15.8
2022-12-06T06:58:57.309Z,15.8
2022-12-06T07:00:00.182Z,15.8
2022-12-06T07:01:04.461Z,15.9
2022-12-06T07:02:07.172Z,15.9
2022-12-06T07:03:09.940Z,15.9
2022-12-06T07:04:12.425Z,15.7
2022-12-06T07:05:14.904Z,15.8
2022-12-06T07:06:16.816Z,15.8
2022-12-06T07:08:23.996Z,15.7
2022-12-06T07:09:26.209Z,15.8
2022-12-06T07:10:28.401Z,15.8
2022-12-06T07:11:30.792Z,15.7
2022-12-06T07:12:33.262Z,15.8
2022-12-06T07:13:35.207Z,15.7
2022-12-06T07:14:37.128Z,15.8
2022-12-06T07:15:39.355Z,15.8
2022-12-06T07:16:41.427Z,15.8
2022-12-06T07:17:43.987Z,15.8
2022-12-06T07:18:46.627Z,15.7
2022-12-06T07:19:49.197Z,15.8
2022-12-06T07:20:51.685Z,15.9
2022-12-06T07:21:54.187Z,15.9
2022-12-06T07:22:56.730Z,15.8
2022-12-06T07:23:58.931Z,15.8
2022-12-06T07:25:01.130Z,15.7
2022-12-06T07:26:03.066Z,15.8
2022-12-06T07:27:05.565Z,15.7
2022-12-06T07:28:07.779Z,15.8
2022-12-06T07:29:09.720Z,15.8
2022-12-06T07:31:17.365Z,15.9
2022-12-06T07:32:19.858Z,15.8
2022-12-06T07:33:21.837Z,15.8
2022-12-06T07:34:24.410Z,15.8
2022-12-06T07:36:31.608Z,15.8
2022-12-06T07:37:32.978Z,15.7
2022-12-06T07:38:34.920Z,15.8
2022-12-06T07:39:37.151Z,15.7
2022-12-06T07:41:44.341Z,15.8
2022-12-06T07:42:46.828Z,15.8
2022-12-06T07:43:49.076Z,15.8
2022-12-06T07:45:56.675Z,15.8
2022-12-06T07:46:59.195Z,15.8
2022-12-06T07:48:01.672Z,15.8
2022-12-06T07:49:04.209Z,15.8
2022-12-06T07:50:06.759Z,15.7
2022-12-06T07:51:15.433Z,15.8
2022-12-06T07:52:17.637Z,15.8
2022-12-06T07:53:19.859Z,15.8
2022-12-06T07:54:22.106Z,15.8
2022-12-06T07:55:24.576Z,15.8
2022-12-06T07:56:26.778Z,15.8
2022-12-06T07:57:29.263Z,15.8
2022-12-06T07:58:31.808Z,15.7
2022-12-06T07:59:34.298Z,15.7
2022-12-06T08:00:36.789Z,15.8
2022-12-06T08:01:39.414Z,15.8
2022-12-06T08:02:42.151Z,15.7
2022-12-06T08:03:44.101Z,15.8
2022-12-06T08:04:46.756Z,15.7
2022-12-06T08:05:49.834Z,15.7
2022-12-06T08:06:52.030Z,15.8
2022-12-06T08:07:54.299Z,15.9
2022-12-06T08:08:56.539Z,15.8
2022-12-06T08:09:59.545Z,15.8
2022-12-06T08:11:03.540Z,15.7
2022-12-06T08:12:05.764Z,15.8
2022-12-06T08:13:08.291Z,15.7
2022-12-06T08:14:10.509Z,15.8
2022-12-06T08:15:13.035Z,15.8
2022-12-06T08:16:15.382Z,15.7
2022-12-06T08:17:17.944Z,15.8
2022-12-06T08:18:20.439Z,15.7
2022-12-06T08:19:22.664Z,15.8
2022-12-06T08:20:25.161Z,15.8
2022-12-06T08:21:27.876Z,15.8
2022-12-06T08:22:30.093Z,15.8
2022-12-06T08:24:37.552Z,15.7
2022-12-06T08:25:39.784Z,15.8
2022-12-06T08:26:42.013Z,15.8
2022-12-06T08:27:43.931Z,15.8
2022-12-06T08:28:45.858Z,15.8
2022-12-06T08:29:48.343Z,15.8
2022-12-06T08:30:51.004Z,15.8
2022-12-06T08:31:53.738Z,15.8
2022-12-06T08:32:55.960Z,15.8
2022-12-06T08:33:58.445Z,15.8
2022-12-06T08:35:00.398Z,15.8
2022-12-06T08:36:02.912Z,15.8
2022-12-06T08:37:05.199Z,15.7
2022-12-06T08:38:06.866Z,15.8
2022-12-06T08:39:09.353Z,15.8
2022-12-06T08:40:11.274Z,15.7
2022-12-06T08:41:13.784Z,15.8
2022-12-06T08:43:20.971Z,15.7
2022-12-06T08:44:23.465Z,15.7
2022-12-06T08:45:25.398Z,15.7
2022-12-06T08:46:27.787Z,15.8
2022-12-06T08:47:29.947Z,15.8
2022-12-06T08:48:32.168Z,15.8
2022-12-06T08:49:41.264Z,15.8
2022-12-06T08:50:42.938Z,15.8
2022-12-06T08:51:44.901Z,15.8
2022-12-06T08:52:47.479Z,15.8
2022-12-06T08:53:49.966Z,15.8
2022-12-06T08:54:51.910Z,15.7
2022-12-06T08:56:59.130Z,15.8
2022-12-06T08:58:01.068Z,15.8
2022-12-06T08:59:02.986Z,15.8
2022-12-06T09:00:05.496Z,15.7
2022-12-06T09:01:07.780Z,15.7
2022-12-06T09:02:10.149Z,15.8
2022-12-06T09:03:12.567Z,15.9
2022-12-06T09:04:14.985Z,15.7
2022-12-06T09:05:17.263Z,15.7
2022-12-06T09:06:19.758Z,15.8
2022-12-06T09:07:22.018Z,15.8
2022-12-06T09:08:24.813Z,15.8
2022-12-06T09:09:27.066Z,15.7
2022-12-06T09:10:29.563Z,15.8
2022-12-06T09:11:32.040Z,15.8
2022-12-06T09:12:34.558Z,15.8
2022-12-06T09:13:37.036Z,15.8
2022-12-06T09:14:38.983Z,15.8
2022-12-06T09:15:41.099Z,15.7
2022-12-06T09:16:43.280Z,15.7
2022-12-06T09:17:45.224Z,15.8
2022-12-06T09:18:47.709Z,15.7
2022-12-06T09:19:49.913Z,15.7
2022-12-06T09:20:51.877Z,15.7
2022-12-06T09:21:53.795Z,15.8
2022-12-06T09:22:56.321Z,15.8
2022-12-06T09:23:58.882Z,15.8
2022-12-06T09:25:01.395Z,15.7
2022-12-06T09:26:03.879Z,15.7
2022-12-06T09:27:06.108Z,15.8
2022-12-06T09:28:08.672Z,15.7
2022-12-06T09:29:11.167Z,15.7
2022-12-06T09:30:12.815Z,15.7
2022-12-06T09:31:15.188Z,15.7
2022-12-06T09:32:17.665Z,15.8
2022-12-06T09:33:19.897Z,15.8
2022-12-06T09:34:22.096Z,15.7
2022-12-06T09:35:25.851Z,15.7
2022-12-06T09:36:27.768Z,15.7
2022-12-06T09:37:29.952Z,15.7
2022-12-06T09:38:31.943Z,15.8
2022-12-06T09:39:34.284Z,15.7
2022-12-06T09:41:41.562Z,15.7
2022-12-06T09:42:43.830Z,15.8
2022-12-06T09:43:46.358Z,15.7
2022-12-06T09:44:48.611Z,15.8
2022-12-06T09:45:50.816Z,15.8
2022-12-06T09:46:53.242Z,15.8
2022-12-06T09:47:55.838Z,15.7
2022-12-06T09:48:58.096Z,15.7
2022-12-06T09:50:01.271Z,15.8
2022-12-06T09:51:04.875Z,15.8
2022-12-06T09:52:07.400Z,15.7
2022-12-06T09:53:09.622Z,15.7
2022-12-06T09:54:12.125Z,15.7
2022-12-06T09:55:14.696Z,15.8
2022-12-06T09:56:17.178Z,15.7
2022-12-06T09:57:19.392Z,15.7
2022-12-06T09:58:21.328Z,15.8
2022-12-06T09:59:23.599Z,15.7
2022-12-06T10:00:26.089Z,15.8
2022-12-06T10:01:28.806Z,15.7
2022-12-06T10:02:31.611Z,15.8
2022-12-06T10:03:34.097Z,15.7
2022-12-06T10:04:36.607Z,15.8
2022-12-06T10:05:39.119Z,15.8
2022-12-06T10:06:41.611Z,15.8
2022-12-06T10:07:44.424Z,15.7
2022-12-06T10:08:47.537Z,15.7
2022-12-06T10:09:50.532Z,15.7
2022-12-06T10:10:53.088Z,15.8
2022-12-06T10:11:55.292Z,15.8
2022-12-06T10:12:57.553Z,15.8
2022-12-06T10:14:00.047Z,15.7
2022-12-06T10:15:02.566Z,15.7
2022-12-06T10:16:04.842Z,15.8
2022-12-06T10:18:12.130Z,15.7
2022-12-06T10:19:14.342Z,15.8
2022-12-06T10:20:17.102Z,15.8
2022-12-06T10:21:19.602Z,15.7
2022-12-06T10:22:21.804Z,15.8
2022-12-06T10:23:24.319Z,15.7
2022-12-06T10:24:26.525Z,15.7
2022-12-06T10:25:29.082Z,15.8
2022-12-06T10:26:31.727Z,15.7
2022-12-06T10:27:34.217Z,15.7
2022-12-06T10:28:36.163Z,15.7
2022-12-06T10:29:38.664Z,15.8
2022-12-06T10:30:41.170Z,15.8
2022-12-06T10:31:43.783Z,15.7
2022-12-06T10:32:46.628Z,15.7
2022-12-06T10:33:49.138Z,15.7
2022-12-06T10:34:51.351Z,15.8
2022-12-06T10:35:53.549Z,15.7
2022-12-06T10:36:55.487Z,15.7
2022-12-06T10:37:57.442Z,15.7
2022-12-06T10:38:59.387Z,15.8
2022-12-06T10:40:02.215Z,15.7
2022-12-06T10:41:06.138Z,15.8
2022-12-06T10:42:08.703Z,15.7
2022-12-06T10:43:11.190Z,15.7
2022-12-06T10:44:13.687Z,15.7
2022-12-06T10:46:21.051Z,15.7
2022-12-06T10:47:23.179Z,15.6
2022-12-06T10:48:25.673Z,15.7
2022-12-06T10:49:27.864Z,15.8
2022-12-06T10:50:30.066Z,15.7
2022-12-06T10:51:32.551Z,15.7
2022-12-06T10:52:35.030Z,15.7
2022-12-06T10:53:37.520Z,15.7
2022-12-06T10:54:39.718Z,15.8
2022-12-06T10:55:41.926Z,15.7
2022-12-06T10:56:44.472Z,15.7
2022-12-06T10:57:47.043Z,15.7
2022-12-06T10:58:49.247Z,15.7
2022-12-06T10:59:51.724Z,15.6
2022-12-06T11:00:53.825Z,15.7
2022-12-06T11:01:56.768Z,15.7
2022-12-06T11:02:59.290Z,15.7
2022-12-06T11:04:01.840Z,15.7
2022-12-06T11:05:04.322Z,15.7
2022-12-06T11:06:06.267Z,15.8
2022-12-06T11:07:08.458Z,15.7
2022-12-06T11:08:11.115Z,15.6
2022-12-06T11:09:13.513Z,15.8
2022-12-06T11:10:15.998Z,15.7
2022-12-06T11:11:18.177Z,15.6
2022-12-06T11:12:20.679Z,15.7
2022-12-06T11:13:26.632Z,15.7
2022-12-06T11:14:29.166Z,15.7
2022-12-06T11:15:31.636Z,15.8
2022-12-06T11:16:34.316Z,15.6
2022-12-06T11:17:37.163Z,15.7
2022-12-06T11:18:39.191Z,15.7
2022-12-06T11:19:41.380Z,15.6
2022-12-06T11:20:43.869Z,15.7
2022-12-06T11:21:46.525Z,15.8
2022-12-06T11:22:49.033Z,15.6
2022-12-06T11:23:51.233Z,15.7
2022-12-06T11:24:53.719Z,15.6
2022-12-06T11:26:10.846Z,15.6
2022-12-06T11:27:13.316Z,15.7
2022-12-06T11:28:15.859Z,15.7
2022-12-06T11:29:18.091Z,15.7
2022-12-06T11:30:21.394Z,15.7
2022-12-06T11:31:24.122Z,15.8
2022-12-06T11:32:26.974Z,15.6
2022-12-06T11:33:29.464Z,15.7
2022-12-06T11:34:31.673Z,15.8
2022-12-06T11:35:33.877Z,15.7
2022-12-06T11:36:36.363Z,15.7
2022-12-06T11:38:43.531Z,15.7
2022-12-06T11:39:45.465Z,15.7
2022-12-06T11:40:47.938Z,15.7
2022-12-06T11:41:50.150Z,15.7
2022-12-06T11:42:52.377Z,15.7
2022-12-06T11:43:54.953Z,15.7
2022-12-06T11:44:57.461Z,15.7
2022-12-06T11:46:00.019Z,15.8
2022-12-06T11:47:02.712Z,15.7
2022-12-06T11:48:04.847Z,15.7
2022-12-06T11:49:07.353Z,15.7
2022-12-06T11:51:14.514Z,15.7
2022-12-06T11:52:17.017Z,15.7
2022-12-06T11:53:19.505Z,15.8
2022-12-06T11:54:21.722Z,15.7
2022-12-06T11:55:23.948Z,15.6
2022-12-06T11:56:26.166Z,15.8
2022-12-06T11:57:28.357Z,15.7
2022-12-06T11:58:30.560Z,15.8
2022-12-06T11:59:32.796Z,15.7
2022-12-06T12:00:35.016Z,15.8
2022-12-06T12:01:37.363Z,15.7
2022-12-06T12:02:40.292Z,15.7
2022-12-06T12:03:43.408Z,15.7
2022-12-06T12:04:46.096Z,15.7
2022-12-06T12:05:48.587Z,15.6
2022-12-06T12:06:50.506Z,15.7
2022-12-06T12:07:52.843Z,15.8
2022-12-06T12:08:55.572Z,15.7
2022-12-06T12:09:58.064Z,15.6
2022-12-06T12:11:00.566Z,15.7
2022-12-06T12:12:02.811Z,15.7
2022-12-06T12:13:06.053Z,15.6
2022-12-06T12:14:08.528Z,15.7
2022-12-06T12:15:11.042Z,15.7
2022-12-06T12:16:13.670Z,15.7
2022-12-06T12:17:16.470Z,15.7
2022-12-06T12:18:18.946Z,15.7
2022-12-06T12:19:21.445Z,15.7
2022-12-06T12:20:23.953Z,15.7
2022-12-06T12:21:26.162Z,15.7
2022-12-06T12:22:28.362Z,15.7
2022-12-06T12:23:30.845Z,15.7
2022-12-06T12:24:35.819Z,15.7
2022-12-06T12:25:38.479Z,15.7
2022-12-06T12:26:40.974Z,15.8
2022-12-06T12:27:43.458Z,15.6
2022-12-06T12:28:45.684Z,15.6
2022-12-06T12:29:48.153Z,15.8
2022-12-06T12:30:50.371Z,15.7
2022-12-06T12:31:53.038Z,15.7
2022-12-06T12:32:55.910Z,15.7
2022-12-06T12:33:58.396Z,15.8
2022-12-06T12:35:01.384Z,15.7
2022-12-06T12:36:04.563Z,15.6
2022-12-06T12:37:06.499Z,15.7
2022-12-06T12:38:08.693Z,15.6
2022-12-06T12:39:11.206Z,15.7
2022-12-06T12:40:13.691Z,15.7
2022-12-06T12:41:16.054Z,15.7
2022-12-06T12:42:18.532Z,15.6
2022-12-06T12:43:20.550Z,15.7
2022-12-06T12:45:27.736Z,15.5
2022-12-06T12:46:30.119Z,15.7
2022-12-06T12:47:32.878Z,15.7
2022-12-06T12:48:35.125Z,15.7
2022-12-06T12:49:37.618Z,15.7
2022-12-06T12:50:40.151Z,15.7
2022-12-06T12:52:47.821Z,15.7
2022-12-06T12:53:50.975Z,15.7
2022-12-06T12:54:52.673Z,15.7
2022-12-06T12:55:55.183Z,15.7
2022-12-06T12:56:57.092Z,15.7
2022-12-06T12:57:59.300Z,15.7
2022-12-06T12:59:01.242Z,15.7
2022-12-06T13:00:03.463Z,15.7
2022-12-06T13:01:06.130Z,15.7
2022-12-06T13:02:08.826Z,15.6
2022-12-06T13:04:16.598Z,15.7
2022-12-06T13:06:24.132Z,15.6
2022-12-06T13:07:26.663Z,15.6
2022-12-06T13:08:29.145Z,15.7
2022-12-06T13:09:31.646Z,15.7
2022-12-06T13:10:34.120Z,15.8
2022-12-06T13:11:36.331Z,15.7
2022-12-06T13:12:38.833Z,15.6
2022-12-06T13:13:40.772Z,15.6
2022-12-06T13:14:42.703Z,15.7
2022-12-06T13:15:44.923Z,15.6
2022-12-06T13:16:47.591Z,15.6
2022-12-06T13:17:52.852Z,15.7
2022-12-06T13:18:55.746Z,15.7
2022-12-06T13:19:58.258Z,15.7
2022-12-06T13:21:01.033Z,15.7
2022-12-06T13:22:03.290Z,15.5
2022-12-06T13:23:05.802Z,15.6
2022-12-06T13:24:07.729Z,15.7
2022-12-06T13:25:09.946Z,15.7
2022-12-06T13:26:12.170Z,15.5
2022-12-06T13:27:14.660Z,15.7
2022-12-06T13:28:16.870Z,15.7
2022-12-06T13:29:19.360Z,15.7
2022-12-06T13:30:21.674Z,15.7
2022-12-06T13:31:23.799Z,15.8
2022-12-06T13:32:26.470Z,15.7
2022-12-06T13:33:28.693Z,15.7
2022-12-06T13:35:35.603Z,15.7
2022-12-06T13:36:38.196Z,15.7
2022-12-06T13:37:40.409Z,15.7
2022-12-06T13:38:42.629Z,15.6
2022-12-06T13:39:44.837Z,15.8
2022-12-06T13:40:47.037Z,15.7
2022-12-06T13:41:48.973Z,15.7
2022-12-06T13:42:51.201Z,15.7
2022-12-06T13:43:53.683Z,15.7
2022-12-06T13:44:56.198Z,15.7
2022-12-06T13:45:58.502Z,15.7
2022-12-06T13:47:00.949Z,15.6
2022-12-06T13:48:02.881Z,15.7
2022-12-06T13:49:04.899Z,15.7
2022-12-06T13:50:07.683Z,15.7
2022-12-06T13:51:09.895Z,15.7
2022-12-06T13:52:12.197Z,15.7
2022-12-06T13:53:14.713Z,15.7
2022-12-06T13:54:17.238Z,15.7
2022-12-06T13:55:19.458Z,15.7
2022-12-06T13:56:21.124Z,15.7
2022-12-06T13:57:23.622Z,15.7
2022-12-06T13:58:26.169Z,15.7
2022-12-06T13:59:28.117Z,15.7
2022-12-06T14:00:30.363Z,15.7
2022-12-06T14:02:37.434Z,15.7
2022-12-06T14:03:40.218Z,15.7
2022-12-06T14:04:42.158Z,15.7
2022-12-06T14:05:44.664Z,15.6
2022-12-06T14:06:47.201Z,15.6
2022-12-06T14:07:49.938Z,15.6
2022-12-06T14:08:52.624Z,15.6
2022-12-06T14:09:54.857Z,15.7
2022-12-06T14:10:57.078Z,15.7
2022-12-06T14:11:58.780Z,15.7
2022-12-06T14:13:01.316Z,15.7
2022-12-06T14:14:03.543Z,15.6
2022-12-06T14:15:05.747Z,15.6
2022-12-06T14:16:08.231Z,15.7
2022-12-06T14:17:10.295Z,15.7
2022-12-06T14:18:17.451Z,15.6
2022-12-06T14:19:19.822Z,15.6
2022-12-06T14:20:22.125Z,15.6
2022-12-06T14:21:24.363Z,15.7